createdAt,value
2019-05-17T00:00:23.227Z,23.30
2019-05-17T00:00:58.938Z,22.50
2019-05-17T00:01:34.365Z,23.63
2019-05-17T00:02:11.267Z,22.57
2019-05-17T00:02:46.874Z,22.83
2019-05-17T00:03:22.163Z,23.60
2019-05-17T00:03:57.635Z,22.37
2019-05-17T00:04:33.310Z,23.90
2019-05-17T00:05:08.543Z,23.13
2019-05-17T00:05:43.971Z,22.73
2019-05-17T00:06:19.642Z,23.77
2019-05-17T00:06:57.021Z,23.30
2019-05-17T00:07:32.998Z,22.77
2019-05-17T00:08:08.612Z,22.77
2019-05-17T00:08:44.143Z,23.00
2019-05-17T00:09:19.870Z,23.93
2019-05-17T00:09:57.128Z,23.33
2019-05-17T00:10:32.504Z,23.57
2019-05-17T00:11:07.923Z,24.03
2019-05-17T00:11:43.515Z,23.60
2019-05-17T00:12:18.747Z,23.67
2019-05-17T00:12:56.285Z,22.77
2019-05-17T00:13:31.492Z,24.27
2019-05-17T00:14:06.752Z,24.13
2019-05-17T00:14:42.158Z,23.33
2019-05-17T00:15:18.380Z,23.40
2019-05-17T00:15:56.451Z,23.70
2019-05-17T00:16:31.008Z,22.97
2019-05-17T00:17:06.842Z,24.03
2019-05-17T00:17:42.223Z,23.03
2019-05-17T00:18:17.637Z,23.47
2019-05-17T00:18:53.559Z,22.53
2019-05-17T00:19:28.779Z,23.23
2019-05-17T00:20:06.311Z,23.90
2019-05-17T00:20:42.039Z,23.10
2019-05-17T00:21:17.272Z,24.03
2019-05-17T00:21:52.959Z,22.63
2019-05-17T00:22:28.545Z,22.30
2019-05-17T00:23:03.758Z,24.93
2019-05-17T00:23:39.241Z,23.43
2019-05-17T00:24:14.828Z,24.30
2019-05-17T00:24:51.029Z,24.20
2019-05-17T00:25:27.375Z,23.63
2019-05-17T00:26:03.147Z,24.03
2019-05-17T00:26:39.847Z,23.47
2019-05-17T00:27:17.260Z,23.30
2019-05-17T00:27:52.702Z,22.50
2019-05-17T00:28:27.950Z,24.13
2019-05-17T00:29:03.554Z,24.37
2019-05-17T00:29:39.150Z,23.47
2019-05-17T00:30:14.388Z,24.33
2019-05-17T00:30:50.159Z,22.87
2019-05-17T00:31:26.274Z,23.57
2019-05-17T00:32:01.742Z,24.53
2019-05-17T00:32:37.159Z,24.63
2019-05-17T00:33:12.730Z,24.47
2019-05-17T00:33:48.242Z,22.80
2019-05-17T00:34:23.663Z,23.53
2019-05-17T00:34:59.567Z,23.53
2019-05-17T00:35:34.792Z,23.30
2019-05-17T00:36:10.200Z,24.00
2019-05-17T00:36:46.892Z,24.13
2019-05-17T00:37:22.430Z,23.00
2019-05-17T00:37:57.836Z,23.93
2019-05-17T00:38:45.553Z,23.80
2019-05-17T00:39:10.819Z,22.70
2019-05-17T00:39:47.111Z,23.67
2019-05-17T00:40:22.949Z,23.60
2019-05-17T00:40:58.177Z,23.20
2019-05-17T00:41:33.734Z,23.27
2019-05-17T00:42:09.356Z,23.60
2019-05-17T00:42:46.598Z,23.37
2019-05-17T00:43:21.978Z,23.63
2019-05-17T00:43:57.563Z,24.50
2019-05-17T00:44:33.084Z,24.00
2019-05-17T00:45:09.639Z,23.00
2019-05-17T00:45:46.830Z,24.27
2019-05-17T00:46:22.347Z,24.23
2019-05-17T00:46:58.869Z,23.87
2019-05-17T00:47:37.468Z,22.77
2019-05-17T00:48:12.771Z,23.13
2019-05-17T00:48:48.190Z,21.80
2019-05-17T00:49:26.324Z,23.27
2019-05-17T00:50:01.095Z,23.73
2019-05-17T00:50:37.918Z,23.53
2019-05-17T00:51:16.687Z,23.30
2019-05-17T00:51:52.475Z,23.60
2019-05-17T00:52:28.584Z,23.27
2019-05-17T00:53:04.183Z,23.67
2019-05-17T00:53:40.394Z,23.67
2019-05-17T00:54:17.446Z,23.53
2019-05-17T00:54:53.405Z,24.03
2019-05-17T00:55:28.902Z,23.57
2019-05-17T00:56:06.472Z,23.73
2019-05-17T00:56:41.610Z,24.17
2019-05-17T00:57:16.842Z,23.73
2019-05-17T00:57:52.605Z,23.17
2019-05-17T00:58:28.238Z,23.77
2019-05-17T00:59:03.503Z,23.87
2019-05-17T00:59:38.914Z,23.57
2019-05-17T01:00:16.884Z,23.47
2019-05-17T01:00:51.562Z,23.57
2019-05-17T01:01:27.170Z,23.00
2019-05-17T01:02:02.752Z,24.07
2019-05-17T01:02:37.993Z,24.00
2019-05-17T01:03:13.398Z,22.83
2019-05-17T01:03:49.034Z,24.43
2019-05-17T01:04:24.620Z,24.10
2019-05-17T01:05:00.084Z,24.23
2019-05-17T01:05:36.914Z,24.43
2019-05-17T01:06:12.601Z,23.97
2019-05-17T01:06:48.011Z,25.23
2019-05-17T01:07:23.615Z,23.83
2019-05-17T01:07:59.006Z,23.50
2019-05-17T01:08:37.072Z,23.07
2019-05-17T01:09:12.463Z,23.93
2019-05-17T01:09:47.750Z,24.53
2019-05-17T01:10:23.186Z,24.07
2019-05-17T01:10:58.828Z,25.07
2019-05-17T01:11:36.444Z,24.20
2019-05-17T01:12:11.180Z,25.00
2019-05-17T01:12:48.165Z,23.97
2019-05-17T01:13:23.507Z,24.63
2019-05-17T01:13:58.943Z,24.50
2019-05-17T01:14:34.561Z,24.93
2019-05-17T01:15:10.083Z,23.73
2019-05-17T01:15:47.414Z,24.87
2019-05-17T01:16:22.786Z,23.37
2019-05-17T01:16:57.995Z,24.80
2019-05-17T01:17:33.774Z,23.77
2019-05-17T01:18:09.367Z,23.93
2019-05-17T01:18:46.876Z,24.47
2019-05-17T01:19:21.719Z,24.37
2019-05-17T01:19:57.516Z,22.90
2019-05-17T01:20:32.962Z,24.80
2019-05-17T01:21:08.703Z,24.13
2019-05-17T01:21:44.376Z,23.87
2019-05-17T01:22:19.927Z,24.03
2019-05-17T01:22:56.648Z,24.80
2019-05-17T01:23:32.447Z,23.87
2019-05-17T01:24:07.699Z,23.73
2019-05-17T01:24:43.367Z,25.10
2019-05-17T01:25:20.094Z,23.87
2019-05-17T01:25:56.693Z,23.53
2019-05-17T01:26:32.326Z,24.20
2019-05-17T01:27:07.935Z,24.33
2019-05-17T01:27:43.171Z,24.03
2019-05-17T01:28:18.647Z,22.93
2019-05-17T01:28:54.632Z,23.63
2019-05-17T01:29:29.855Z,24.50
2019-05-17T01:30:06.821Z,24.13
2019-05-17T01:30:42.527Z,24.07
2019-05-17T01:31:17.771Z,24.93
2019-05-17T01:31:53.184Z,24.13
2019-05-17T01:32:28.811Z,25.27
2019-05-17T01:33:06.407Z,25.27
2019-05-17T01:33:41.558Z,23.70
2019-05-17T01:34:17.175Z,24.33
2019-05-17T01:34:52.435Z,25.67
2019-05-17T01:35:28.420Z,24.17
2019-05-17T01:36:06.593Z,24.27
2019-05-17T01:36:41.215Z,24.27
2019-05-17T01:37:17.156Z,23.50
2019-05-17T01:37:56.344Z,24.50
2019-05-17T01:38:31.038Z,24.03
2019-05-17T01:39:15.209Z,25.80
2019-05-17T01:39:43.839Z,23.83
2019-05-17T01:40:19.398Z,26.47
2019-05-17T01:40:56.448Z,25.20
2019-05-17T01:41:33.159Z,25.03
2019-05-17T01:42:08.419Z,25.57
2019-05-17T01:42:43.842Z,25.17
2019-05-17T01:43:19.433Z,24.53
2019-05-17T01:43:56.786Z,26.67
2019-05-17T01:44:31.791Z,26.83
2019-05-17T01:45:07.518Z,26.80
2019-05-17T01:45:42.887Z,26.87
2019-05-17T01:46:18.615Z,26.67
2019-05-17T01:46:56.607Z,25.87
2019-05-17T01:47:31.187Z,25.13
2019-05-17T01:48:07.451Z,26.77
2019-05-17T01:48:43.266Z,26.83
2019-05-17T01:49:18.535Z,26.10
2019-05-17T01:49:54.005Z,26.40
2019-05-17T01:50:29.589Z,27.37
2019-05-17T01:51:07.308Z,26.57
2019-05-17T01:51:42.275Z,26.40
2019-05-17T01:52:18.035Z,28.67
2019-05-17T01:52:53.253Z,26.90
2019-05-17T01:53:28.662Z,25.93
2019-05-17T01:54:06.686Z,25.90
2019-05-17T01:54:41.718Z,26.60
2019-05-17T01:55:17.524Z,26.67
2019-05-17T01:55:53.285Z,27.23
2019-05-17T01:56:29.182Z,26.17
2019-05-17T01:57:04.578Z,27.33
2019-05-17T01:57:40.503Z,27.33
2019-05-17T01:58:16.375Z,26.10
2019-05-17T01:58:52.922Z,27.07
2019-05-17T01:59:28.514Z,27.07
2019-05-17T02:00:06.265Z,27.93
2019-05-17T02:00:41.430Z,26.57
2019-05-17T02:01:17.177Z,26.40
2019-05-17T02:01:56.434Z,26.30
2019-05-17T02:02:36.596Z,26.57
2019-05-17T02:03:12.237Z,27.57
2019-05-17T02:03:47.466Z,28.23
2019-05-17T02:04:22.875Z,26.97
2019-05-17T02:04:58.463Z,27.77
2019-05-17T02:05:33.748Z,27.90
2019-05-17T02:06:09.157Z,26.30
2019-05-17T02:06:46.748Z,26.60
2019-05-17T02:07:23.601Z,26.23
2019-05-17T02:07:59.087Z,25.87
2019-05-17T02:08:37.240Z,26.53
2019-05-17T02:09:12.760Z,27.37
2019-05-17T02:09:48.710Z,26.27
2019-05-17T02:10:24.614Z,26.70
2019-05-17T02:10:59.958Z,27.50
2019-05-17T02:11:37.320Z,26.23
2019-05-17T02:12:13.071Z,27.80
2019-05-17T02:12:49.033Z,28.23
2019-05-17T02:13:26.769Z,27.17
2019-05-17T02:14:02.730Z,26.80
2019-05-17T02:14:37.998Z,27.53
2019-05-17T02:15:13.409Z,28.27
2019-05-17T02:15:48.990Z,27.63
2019-05-17T02:16:26.619Z,27.43
2019-05-17T02:17:01.454Z,26.93
2019-05-17T02:17:37.441Z,27.63
2019-05-17T02:18:12.859Z,27.10
2019-05-17T02:18:48.270Z,27.07
2019-05-17T02:19:26.425Z,29.23
2019-05-17T02:20:01.189Z,29.03
2019-05-17T02:20:37.453Z,29.03
2019-05-17T02:21:13.484Z,29.20
2019-05-17T02:21:48.715Z,30.07
2019-05-17T02:22:24.122Z,28.17
2019-05-17T02:22:59.778Z,28.80
2019-05-17T02:23:36.980Z,28.00
2019-05-17T02:24:12.327Z,28.03
2019-05-17T02:24:47.906Z,27.90
2019-05-17T02:25:23.118Z,28.77
2019-05-17T02:25:58.536Z,29.90
2019-05-17T02:26:34.126Z,29.23
2019-05-17T02:27:09.351Z,30.03
2019-05-17T02:27:44.930Z,29.23
2019-05-17T02:28:21.407Z,28.80
2019-05-17T02:28:56.730Z,30.77
2019-05-17T02:29:32.238Z,29.97
2019-05-17T02:30:07.952Z,30.30
2019-05-17T02:30:44.068Z,30.03
2019-05-17T02:31:19.735Z,29.43
2019-05-17T02:31:55.903Z,31.37
2019-05-17T02:32:33.622Z,29.87
2019-05-17T02:33:12.421Z,30.53
2019-05-17T02:33:46.835Z,30.07
2019-05-17T02:34:23.244Z,29.37
2019-05-17T02:35:03.008Z,29.70
2019-05-17T02:35:36.582Z,29.27
2019-05-17T02:36:14.113Z,28.70
2019-05-17T02:36:49.251Z,29.83
2019-05-17T02:37:24.856Z,29.63
2019-05-17T02:38:02.835Z,29.57
2019-05-17T02:38:37.624Z,30.17
2019-05-17T02:39:13.366Z,30.13
2019-05-17T02:39:58.234Z,29.80
2019-05-17T02:40:26.358Z,30.63
2019-05-17T02:41:03.283Z,30.07
2019-05-17T02:41:42.781Z,30.50
2019-05-17T02:42:16.401Z,30.53
2019-05-17T02:42:53.605Z,29.73
2019-05-17T02:43:33.130Z,31.10
2019-05-17T02:44:06.970Z,30.03
2019-05-17T02:44:43.759Z,30.37
2019-05-17T02:45:19.215Z,31.50
2019-05-17T02:45:54.623Z,31.27
2019-05-17T02:46:33.555Z,31.33
2019-05-17T02:47:07.120Z,30.63
2019-05-17T02:47:43.983Z,30.13
2019-05-17T02:48:22.952Z,31.90
2019-05-17T02:48:56.975Z,31.67
2019-05-17T02:49:33.309Z,31.10
2019-05-17T02:50:09.118Z,30.73
2019-05-17T02:50:48.176Z,31.20
2019-05-17T02:51:23.671Z,30.40
2019-05-17T02:52:02.935Z,30.37
2019-05-17T02:52:36.969Z,30.50
2019-05-17T02:53:13.246Z,31.90
2019-05-17T02:53:52.542Z,30.63
2019-05-17T02:54:26.436Z,30.60
2019-05-17T02:55:04.146Z,31.00
2019-05-17T02:55:39.203Z,31.03
2019-05-17T02:56:14.452Z,30.87
2019-05-17T02:56:49.864Z,31.13
2019-05-17T02:57:25.454Z,31.17
2019-05-17T02:58:03.118Z,31.27
2019-05-17T02:58:37.808Z,28.97
2019-05-17T02:59:13.834Z,31.70
2019-05-17T02:59:52.397Z,32.47
2019-05-17T03:00:26.499Z,30.17
2019-05-17T03:01:03.596Z,30.83
2019-05-17T03:01:39.087Z,31.17
2019-05-17T03:02:14.551Z,29.17
2019-05-17T03:02:53.361Z,30.47
2019-05-17T03:03:27.067Z,29.67
2019-05-17T03:04:03.871Z,29.93
2019-05-17T03:04:43.039Z,31.50
2019-05-17T03:05:16.818Z,30.40
2019-05-17T03:05:53.501Z,30.07
2019-05-17T03:06:32.576Z,30.07
2019-05-17T03:07:06.896Z,29.47
2019-05-17T03:07:43.851Z,30.37
2019-05-17T03:08:23.158Z,29.50
2019-05-17T03:08:56.682Z,30.57
2019-05-17T03:09:33.543Z,30.10
2019-05-17T03:10:18.061Z,30.67
2019-05-17T03:10:46.430Z,30.33
2019-05-17T03:11:22.627Z,30.20
2019-05-17T03:11:58.861Z,30.03
2019-05-17T03:12:34.105Z,30.83
2019-05-17T03:13:12.847Z,29.60
2019-05-17T03:13:47.487Z,29.53
2019-05-17T03:14:23.038Z,30.17
2019-05-17T03:14:58.683Z,30.37
2019-05-17T03:15:34.592Z,30.63
2019-05-17T03:16:09.810Z,30.03
2019-05-17T03:16:45.236Z,29.47
2019-05-17T03:17:22.969Z,30.80
2019-05-17T03:17:57.874Z,31.03
2019-05-17T03:18:34.262Z,30.27
2019-05-17T03:19:12.809Z,30.60
2019-05-17T03:19:47.067Z,28.50
2019-05-17T03:20:23.405Z,29.10
2019-05-17T03:20:59.211Z,29.87
2019-05-17T03:21:34.793Z,29.43
2019-05-17T03:22:13.133Z,29.70
2019-05-17T03:22:48.777Z,29.57
2019-05-17T03:23:24.291Z,31.53
2019-05-17T03:24:02.866Z,29.57
2019-05-17T03:24:37.438Z,29.10
2019-05-17T03:25:14.073Z,29.70
2019-05-17T03:25:52.464Z,29.87
2019-05-17T03:26:32.541Z,29.10
2019-05-17T03:27:06.239Z,29.67
2019-05-17T03:27:42.872Z,30.33
2019-05-17T03:28:18.718Z,29.37
2019-05-17T03:28:54.071Z,29.13
2019-05-17T03:29:29.526Z,29.50
2019-05-17T03:30:06.139Z,31.17
2019-05-17T03:30:47.002Z,30.43
2019-05-17T03:31:19.157Z,30.33
2019-05-17T03:32:00.165Z,29.47
2019-05-17T03:32:36.169Z,29.23
2019-05-17T03:33:08.844Z,30.07
2019-05-17T03:33:46.386Z,30.13
2019-05-17T03:34:26.461Z,30.67
2019-05-17T03:35:06.103Z,29.73
2019-05-17T03:35:38.487Z,30.73
2019-05-17T03:36:16.863Z,29.67
2019-05-17T03:36:56.150Z,29.43
2019-05-17T03:37:36.417Z,29.43
2019-05-17T03:38:05.458Z,30.47
2019-05-17T03:38:43.177Z,30.77
2019-05-17T03:39:18.499Z,29.43
2019-05-17T03:39:54.380Z,29.77
2019-05-17T03:40:56.487Z,30.23
2019-05-17T03:41:18.551Z,30.90
2019-05-17T03:41:44.659Z,29.70
2019-05-17T03:42:22.629Z,28.00
2019-05-17T03:42:58.063Z,28.87
2019-05-17T03:43:35.186Z,29.87
2019-05-17T03:44:13.595Z,30.27
2019-05-17T03:44:47.887Z,31.27
2019-05-17T03:45:23.119Z,29.73
2019-05-17T03:45:58.592Z,28.97
2019-05-17T03:46:34.201Z,30.53
2019-05-17T03:47:09.479Z,30.50
2019-05-17T03:47:45.064Z,29.97
2019-05-17T03:48:22.183Z,30.77
2019-05-17T03:48:57.557Z,28.90
2019-05-17T03:49:33.338Z,29.67
2019-05-17T03:50:09.356Z,28.87
2019-05-17T03:50:44.650Z,30.00
2019-05-17T03:51:23.172Z,29.43
2019-05-17T03:51:57.575Z,31.07
2019-05-17T03:52:33.487Z,29.33
2019-05-17T03:53:08.994Z,30.03
2019-05-17T03:53:44.606Z,29.93
2019-05-17T03:54:22.677Z,29.57
2019-05-17T03:54:57.328Z,30.47
2019-05-17T03:55:33.476Z,30.13
2019-05-17T03:56:08.845Z,31.43
2019-05-17T03:56:44.267Z,30.90
2019-05-17T03:57:23.637Z,30.23
2019-05-17T03:57:57.363Z,31.50
2019-05-17T03:58:33.535Z,29.13
2019-05-17T03:59:12.613Z,29.97
2019-05-17T03:59:46.276Z,31.13
2019-05-17T04:00:23.294Z,29.83
2019-05-17T04:00:59.167Z,29.03
2019-05-17T04:01:34.673Z,30.20
2019-05-17T04:02:12.411Z,29.50
2019-05-17T04:02:47.456Z,29.33
2019-05-17T04:03:23.103Z,31.47
2019-05-17T04:03:58.815Z,31.23
2019-05-17T04:04:34.442Z,30.70
2019-05-17T04:05:12.428Z,29.13
2019-05-17T04:05:47.164Z,29.13
2019-05-17T04:06:23.883Z,29.60
2019-05-17T04:06:59.424Z,29.83
2019-05-17T04:07:34.839Z,29.93
2019-05-17T04:08:13.641Z,30.27
2019-05-17T04:08:47.746Z,29.70
2019-05-17T04:09:23.154Z,30.33
2019-05-17T04:09:58.859Z,30.20
2019-05-17T04:10:34.400Z,31.17
2019-05-17T04:11:22.242Z,29.87
2019-05-17T04:11:47.976Z,30.30
2019-05-17T04:12:23.509Z,31.07
2019-05-17T04:13:03.693Z,29.87
2019-05-17T04:13:37.658Z,30.00
2019-05-17T04:14:13.928Z,30.77
2019-05-17T04:14:53.045Z,29.57
2019-05-17T04:15:27.088Z,29.47
2019-05-17T04:16:05.744Z,31.33
2019-05-17T04:16:42.612Z,30.53
2019-05-17T04:17:16.763Z,30.20
2019-05-17T04:17:53.699Z,29.57
2019-05-17T04:18:29.334Z,31.47
2019-05-17T04:19:06.014Z,30.33
2019-05-17T04:19:42.573Z,30.90
2019-05-17T04:20:18.215Z,30.17
2019-05-17T04:20:53.924Z,29.13
2019-05-17T04:21:29.127Z,30.00
2019-05-17T04:22:04.535Z,31.27
2019-05-17T04:22:43.695Z,30.43
2019-05-17T04:23:17.648Z,30.00
2019-05-17T04:23:53.939Z,31.10
2019-05-17T04:24:32.476Z,29.60
2019-05-17T04:25:07.183Z,29.27
2019-05-17T04:25:43.612Z,29.63
2019-05-17T04:26:22.755Z,31.10
2019-05-17T04:26:56.546Z,30.20
2019-05-17T04:27:32.667Z,29.67
2019-05-17T04:28:08.554Z,29.73
2019-05-17T04:28:44.246Z,29.33
2019-05-17T04:29:22.648Z,30.67
2019-05-17T04:29:58.596Z,31.00
2019-05-17T04:30:34.959Z,29.30
2019-05-17T04:31:13.202Z,29.83
2019-05-17T04:31:48.034Z,29.50
2019-05-17T04:32:23.636Z,30.57
2019-05-17T04:32:59.269Z,30.80
2019-05-17T04:33:34.879Z,29.03
2019-05-17T04:34:13.218Z,29.57
2019-05-17T04:34:47.308Z,28.37
2019-05-17T04:35:23.425Z,29.23
2019-05-17T04:35:58.940Z,30.53
2019-05-17T04:36:34.355Z,29.60
2019-05-17T04:37:12.893Z,30.63
2019-05-17T04:37:46.866Z,29.83
2019-05-17T04:38:23.606Z,29.90
2019-05-17T04:39:02.209Z,30.33
2019-05-17T04:39:36.670Z,29.10
2019-05-17T04:40:14.338Z,29.77
2019-05-17T04:40:53.463Z,29.87
2019-05-17T04:41:41.405Z,29.13
2019-05-17T04:42:04.382Z,30.23
2019-05-17T04:42:43.495Z,30.90
2019-05-17T04:43:17.077Z,29.57
2019-05-17T04:43:53.260Z,28.73
2019-05-17T04:44:29.034Z,30.40
2019-05-17T04:45:04.505Z,29.07
2019-05-17T04:45:42.455Z,28.73
2019-05-17T04:46:17.248Z,29.67
2019-05-17T04:46:53.595Z,29.00
2019-05-17T04:47:29.230Z,29.80
2019-05-17T04:48:04.847Z,30.07
2019-05-17T04:48:43.506Z,30.07
2019-05-17T04:49:17.248Z,28.50
2019-05-17T04:49:53.849Z,29.43
2019-05-17T04:50:29.255Z,30.03
2019-05-17T04:51:04.988Z,28.80
2019-05-17T04:51:43.916Z,29.90
2019-05-17T04:52:17.893Z,29.27
2019-05-17T04:52:54.005Z,30.07
2019-05-17T04:53:32.787Z,29.47
2019-05-17T04:54:07.648Z,29.90
2019-05-17T04:54:43.514Z,29.13
2019-05-17T04:55:19.097Z,30.00
2019-05-17T04:55:54.616Z,29.10
2019-05-17T04:56:33.005Z,29.50
2019-05-17T04:57:08.646Z,29.27
2019-05-17T04:57:44.511Z,28.63
2019-05-17T04:58:23.037Z,29.40
2019-05-17T04:58:57.468Z,28.80
2019-05-17T04:59:33.759Z,29.63
2019-05-17T05:00:12.691Z,29.10
2019-05-17T05:00:47.463Z,28.60
2019-05-17T05:01:23.676Z,29.23
2019-05-17T05:02:02.720Z,29.00
2019-05-17T05:02:36.671Z,29.13
2019-05-17T05:03:12.821Z,29.63
2019-05-17T05:03:48.690Z,28.37
2019-05-17T05:04:24.399Z,29.47
2019-05-17T05:05:02.910Z,28.37
2019-05-17T05:05:37.114Z,29.13
2019-05-17T05:06:14.249Z,28.70
2019-05-17T05:06:52.280Z,28.47
2019-05-17T05:07:27.271Z,29.00
2019-05-17T05:08:03.488Z,28.03
2019-05-17T05:08:42.208Z,28.20
2019-05-17T05:09:16.083Z,27.37
2019-05-17T05:09:52.363Z,28.67
2019-05-17T05:10:27.787Z,28.93
2019-05-17T05:11:04.118Z,28.23
2019-05-17T05:11:56.152Z,27.87
2019-05-17T05:12:17.096Z,28.47
2019-05-17T05:12:53.547Z,28.97
2019-05-17T05:13:29.489Z,28.07
2019-05-17T05:14:04.773Z,27.93
2019-05-17T05:14:42.900Z,28.47
2019-05-17T05:15:22.550Z,28.03
2019-05-17T05:15:57.876Z,28.53
2019-05-17T05:16:33.313Z,27.67
2019-05-17T05:17:08.908Z,27.67
2019-05-17T05:17:44.136Z,28.37
2019-05-17T05:18:21.891Z,27.67
2019-05-17T05:18:57.203Z,27.90
2019-05-17T05:19:33.069Z,27.43
2019-05-17T05:20:08.638Z,28.13
2019-05-17T05:20:44.578Z,28.60
2019-05-17T05:21:22.835Z,27.53
2019-05-17T05:21:56.926Z,28.83
2019-05-17T05:22:33.133Z,27.83
2019-05-17T05:23:08.528Z,28.53
2019-05-17T05:23:43.934Z,27.97
2019-05-17T05:24:22.114Z,27.23
2019-05-17T05:24:57.143Z,28.67
2019-05-17T05:25:32.576Z,28.70
2019-05-17T05:26:08.165Z,28.33
2019-05-17T05:26:43.398Z,28.83
2019-05-17T05:27:19.063Z,27.17
2019-05-17T05:27:54.654Z,28.40
2019-05-17T05:28:31.820Z,28.33
2019-05-17T05:29:07.112Z,28.83
2019-05-17T05:29:42.702Z,28.20
2019-05-17T05:30:19.211Z,28.33
2019-05-17T05:30:54.901Z,29.60
2019-05-17T05:31:32.172Z,27.80
2019-05-17T05:32:07.588Z,28.73
2019-05-17T05:32:43.263Z,29.80
2019-05-17T05:33:19.199Z,29.10
2019-05-17T05:33:54.475Z,28.47
2019-05-17T05:34:32.088Z,28.83
2019-05-17T05:35:07.300Z,27.17
2019-05-17T05:35:42.979Z,28.80
2019-05-17T05:36:21.953Z,28.13
2019-05-17T05:36:57.064Z,28.50
2019-05-17T05:37:33.147Z,28.40
2019-05-17T05:38:08.725Z,28.27
2019-05-17T05:38:44.556Z,28.13
2019-05-17T05:39:20.141Z,28.80
2019-05-17T05:39:55.561Z,27.83
2019-05-17T05:40:32.055Z,27.57
2019-05-17T05:41:08.192Z,26.53
2019-05-17T05:41:43.617Z,27.70
2019-05-17T05:42:19.241Z,28.73
2019-05-17T05:42:54.551Z,27.70
2019-05-17T05:43:32.421Z,28.07
2019-05-17T05:44:07.572Z,28.63
2019-05-17T05:44:42.812Z,28.13
2019-05-17T05:45:18.231Z,27.57
2019-05-17T05:45:53.867Z,27.53
2019-05-17T05:46:29.100Z,28.10
2019-05-17T05:47:04.503Z,26.97
2019-05-17T05:47:41.535Z,28.27
2019-05-17T05:48:16.931Z,28.50
2019-05-17T05:48:52.710Z,29.23
2019-05-17T05:49:28.344Z,27.83
2019-05-17T05:50:04.242Z,28.40
2019-05-17T05:50:39.646Z,28.10
2019-05-17T05:51:16.242Z,28.20
2019-05-17T05:51:52.318Z,28.30
2019-05-17T05:52:27.968Z,29.40
2019-05-17T05:53:03.539Z,27.73
2019-05-17T05:53:39.045Z,27.77
2019-05-17T05:54:14.767Z,26.40
2019-05-17T05:54:52.056Z,28.70
2019-05-17T05:55:27.534Z,26.80
2019-05-17T05:56:03.640Z,27.03
2019-05-17T05:56:42.058Z,27.53
2019-05-17T05:57:16.371Z,26.80
2019-05-17T05:57:52.266Z,27.20
2019-05-17T05:58:27.988Z,28.10
2019-05-17T05:59:03.231Z,28.00
2019-05-17T05:59:38.931Z,26.57
2019-05-17T06:00:16.143Z,27.63
2019-05-17T06:00:53.202Z,27.10
2019-05-17T06:01:28.483Z,27.97
2019-05-17T06:02:04.082Z,27.87
2019-05-17T06:02:41.717Z,28.07
2019-05-17T06:03:16.482Z,28.10
2019-05-17T06:03:52.141Z,25.87
2019-05-17T06:04:27.410Z,26.50
2019-05-17T06:05:02.830Z,26.37
2019-05-17T06:05:39.036Z,27.10
2019-05-17T06:06:16.150Z,28.30
2019-05-17T06:06:52.278Z,27.57
2019-05-17T06:07:28.025Z,27.20
2019-05-17T06:08:03.609Z,26.77
2019-05-17T06:08:41.366Z,26.37
2019-05-17T06:09:16.326Z,25.63
2019-05-17T06:09:51.860Z,26.30
2019-05-17T06:10:27.395Z,26.43
2019-05-17T06:11:03.057Z,27.27
2019-05-17T06:11:38.294Z,26.00
2019-05-17T06:12:22.951Z,26.43
2019-05-17T06:12:51.765Z,26.53
2019-05-17T06:13:27.546Z,26.60
2019-05-17T06:14:02.981Z,25.33
2019-05-17T06:14:38.582Z,26.63
2019-05-17T06:15:13.838Z,27.30
2019-05-17T06:15:51.610Z,26.03
2019-05-17T06:16:26.695Z,26.00
2019-05-17T06:17:02.958Z,25.60
2019-05-17T06:17:38.983Z,25.50
2019-05-17T06:18:15.010Z,24.87
2019-05-17T06:18:51.654Z,25.90
2019-05-17T06:19:27.186Z,25.97
2019-05-17T06:20:02.796Z,27.23
2019-05-17T06:20:38.407Z,25.67
2019-05-17T06:21:13.817Z,26.53
2019-05-17T06:21:51.859Z,27.13
2019-05-17T06:22:26.730Z,26.33
2019-05-17T06:23:02.663Z,25.80
2019-05-17T06:23:38.408Z,24.83
2019-05-17T06:24:13.628Z,25.73
2019-05-17T06:24:49.042Z,25.87
2019-05-17T06:25:24.632Z,26.53
2019-05-17T06:26:03.296Z,25.50
2019-05-17T06:26:37.194Z,25.20
2019-05-17T06:27:13.087Z,26.27
2019-05-17T06:27:48.302Z,24.97
2019-05-17T06:28:23.715Z,25.17
2019-05-17T06:28:59.559Z,24.83
2019-05-17T06:29:34.798Z,25.10
2019-05-17T06:30:12.671Z,25.40
2019-05-17T06:30:47.807Z,24.23
2019-05-17T06:31:24.124Z,24.23
2019-05-17T06:32:02.374Z,25.07
2019-05-17T06:32:37.018Z,24.17
2019-05-17T06:33:26.679Z,24.00
2019-05-17T06:33:52.436Z,23.73
2019-05-17T06:34:28.492Z,23.60
2019-05-17T06:35:03.783Z,24.40
2019-05-17T06:35:42.038Z,23.90
2019-05-17T06:36:16.798Z,24.27
2019-05-17T06:36:52.780Z,23.00
2019-05-17T06:37:28.315Z,23.10
2019-05-17T06:38:03.903Z,23.07
2019-05-17T06:38:39.139Z,23.83
2019-05-17T06:39:14.878Z,23.97
2019-05-17T06:39:52.617Z,24.90
2019-05-17T06:40:27.435Z,23.93
2019-05-17T06:41:02.834Z,23.97
2019-05-17T06:41:38.461Z,24.30
2019-05-17T06:42:13.679Z,23.37
2019-05-17T06:42:49.143Z,22.83
2019-05-17T06:43:24.723Z,23.60
2019-05-17T06:44:02.729Z,23.93
2019-05-17T06:44:37.215Z,23.77
2019-05-17T06:45:12.939Z,22.90
2019-05-17T06:45:48.179Z,23.47
2019-05-17T06:46:24.266Z,23.00
2019-05-17T06:47:02.439Z,23.20
2019-05-17T06:47:37.376Z,22.80
2019-05-17T06:48:12.788Z,23.03
2019-05-17T06:48:48.431Z,23.13
2019-05-17T06:49:23.678Z,22.70
2019-05-17T06:49:59.368Z,22.30
2019-05-17T06:50:35.074Z,21.60
2019-05-17T06:51:11.864Z,22.27
2019-05-17T06:51:47.440Z,22.47
2019-05-17T06:52:23.339Z,22.53
2019-05-17T06:52:58.611Z,21.50
2019-05-17T06:53:35.117Z,21.73
2019-05-17T06:54:11.989Z,22.17
2019-05-17T06:54:48.002Z,23.07
2019-05-17T06:55:24.323Z,21.50
2019-05-17T06:56:02.525Z,20.83
2019-05-17T06:56:37.651Z,21.57
2019-05-17T06:57:13.096Z,21.00
2019-05-17T06:57:48.991Z,21.43
2019-05-17T06:58:24.264Z,22.43
2019-05-17T06:59:00.734Z,22.07
2019-05-17T06:59:36.357Z,21.87
2019-05-17T07:00:19.518Z,21.40
2019-05-17T07:00:49.883Z,21.90
2019-05-17T07:01:25.775Z,21.00
2019-05-17T07:02:01.168Z,21.20
2019-05-17T07:02:37.048Z,20.53
2019-05-17T07:03:12.652Z,20.80
2019-05-17T07:03:49.525Z,21.07
2019-05-17T07:04:25.071Z,20.40
2019-05-17T07:05:02.941Z,20.23
2019-05-17T07:05:40.401Z,20.67
2019-05-17T07:06:21.355Z,21.13
2019-05-17T07:07:13.430Z,20.73
2019-05-17T07:07:49.809Z,19.80
2019-05-17T07:08:25.575Z,20.10
2019-05-17T07:09:01.555Z,19.73
2019-05-17T07:09:40.095Z,20.80
2019-05-17T07:10:15.566Z,19.40
2019-05-17T07:10:51.197Z,20.17
2019-05-17T07:11:26.897Z,19.77
2019-05-17T07:12:02.775Z,19.40
2019-05-17T07:12:54.553Z,20.23
2019-05-17T07:13:15.311Z,20.27
2019-05-17T07:13:50.731Z,19.30
2019-05-17T07:14:26.687Z,19.17
2019-05-17T07:15:02.283Z,18.57
2019-05-17T07:15:46.866Z,18.23
2019-05-17T07:16:15.555Z,18.40
2019-05-17T07:16:50.807Z,17.67
2019-05-17T07:17:26.257Z,17.80
2019-05-17T07:18:01.868Z,17.03
2019-05-17T07:18:37.179Z,16.80
2019-05-17T07:19:12.575Z,16.47
2019-05-17T07:19:50.602Z,16.53
2019-05-17T07:20:25.090Z,16.53
2019-05-17T07:21:03.296Z,15.77
2019-05-17T07:21:40.190Z,15.20
2019-05-17T07:22:14.843Z,15.63
2019-05-17T07:22:50.810Z,15.37
2019-05-17T07:23:26.830Z,16.07
2019-05-17T07:24:02.453Z,15.47
2019-05-17T07:24:39.667Z,15.17
2019-05-17T07:25:15.207Z,14.93
2019-05-17T07:25:50.573Z,15.40
2019-05-17T07:26:26.363Z,15.80
2019-05-17T07:27:01.975Z,14.93
2019-05-17T07:27:41.664Z,14.73
2019-05-17T07:28:14.341Z,15.60
2019-05-17T07:28:49.957Z,15.27
2019-05-17T07:29:25.172Z,14.70
2019-05-17T07:30:00.630Z,14.83
2019-05-17T07:30:39.944Z,14.33
2019-05-17T07:31:15.070Z,14.77
2019-05-17T07:31:50.510Z,14.33
2019-05-17T07:32:26.097Z,14.33
2019-05-17T07:33:01.480Z,14.17
2019-05-17T07:33:36.900Z,14.20
2019-05-17T07:34:12.620Z,13.80
2019-05-17T07:34:50.174Z,14.43
2019-05-17T07:35:25.335Z,13.77
2019-05-17T07:36:01.217Z,14.40
2019-05-17T07:36:36.463Z,13.67
2019-05-17T07:37:11.878Z,13.93
2019-05-17T07:37:49.936Z,14.17
2019-05-17T07:38:24.394Z,14.40
2019-05-17T07:39:00.769Z,13.50
2019-05-17T07:39:40.027Z,13.10
2019-05-17T07:40:14.893Z,13.63
2019-05-17T07:40:50.842Z,13.07
2019-05-17T07:41:26.517Z,14.03
2019-05-17T07:42:01.995Z,14.83
2019-05-17T07:42:39.618Z,13.80
2019-05-17T07:43:15.096Z,13.43
2019-05-17T07:43:50.480Z,13.83
2019-05-17T07:44:25.898Z,14.30
2019-05-17T07:45:01.591Z,13.17